Aviation Digital Data Service (ADDS)

Output produced by METARs form (0327 UTC 23 June 2017)
found at http://aviationweather.gov/adds/metars/
 
METAR text: KCVC 230315Z AUTO 00000KT 10SM +RA SCT040 BKN047 BKN055 23/22 A3006 RMK AO2
Conditions at: KCVC (COVINGTON MUNI , GA, US) observed 0315 UTC 23 June 2017
Temperature: 23.0°C (73°F)
Dewpoint: 22.0°C (72°F) [RH = 94%]
Pressure (altimeter): 30.06 inches Hg (1018.0 mb)
Winds: calm
Visibility: 10 or more miles (16+ km)
Ceiling: 4700 feet AGL
Clouds: scattered clouds at 4000 feet AGL
broken clouds at 4700 feet AGL
broken clouds at 5500 feet AGL
Weather: +RA  (heavy rain)